KFLO/FLO METAR and TAF weather

Enter ICAO airport designator
Station Type Date Time Source
KFLO METAR 2022/11/30 10:53 UTC NOAA

KFLO 301053Z AUTO 34007KT 9SM -RA FEW044 OVC070 13/12 A3008 RMK AO2 RAB27 SLP184 P0001 T01280117


Station Type Date Time Source
KFLO Decoded METAR 2022/11/30 10:53 UTC NOAA

FLORENCE REGIONAL AIRPORT, SC, United States (KFLO) 34-11N 079-44W 44M
Nov 30, 2022 - 05:53 AM EST / 2022.11.30 1053 UTC
Wind: from the NNW (340 degrees) at 8 MPH (7 KT):0
Visibility: 9 mile(s):0
Sky conditions: overcast
Weather: light rain
Precipitation last hour: 0.01 inches
Temperature: 55.0 F (12.8 C)
Dew Point: 53.1 F (11.7 C)
Relative Humidity: 93%
Pressure (altimeter): 30.08 in. Hg (1018 hPa)
ob: KFLO 301053Z AUTO 34007KT 9SM -RA FEW044 OVC070 13/12 A3008 RMK AO2 RAB27 SLP184 P0001 T01280117
cycle: 11

Station Type Date Time Source
KFLO TAF 2022/11/30 06:39 UTC NOAA

TAF KFLO 300537Z 3006/0106 00000KT P6SM OVC250
FM300900 16005KT P6SM BKN060
FM301400 20011KT P6SM VCSH BKN025 WS020/20040KT
FM301700 22012G20KT P6SM VCSH BKN015 WS020/22040KT
FM302000 24013G21KT P6SM BKN025
FM302200 29012KT P6SM SCT025
FM010000 32010KT P6SM SKC

Example: see airport list